FDX430 KDEN-KSAN
Flight info
| Callsign | FDX430 |
|---|---|
| Flight time | 1h 51m |
| Altitude | 34000 |
| Route | BAYLR6 TEHRU PLNDL Q86 TTRUE LUCKI1 |
| Aircraft | MD11/H-SDE1E2E3FGHIJ2J3J4J5M1RWXY/LB1D1 |
Departure
| Time | 2026-04-19 23:58 |
|---|---|
| Airport | Denver International Airport (KDEN) |
Arrival
| Time | 2026-04-20 01:49 |
|---|---|
| Airport | San Diego International Airport (KSAN) |
| Time | Latitude | Longitude | Altitude | Speed | Heading |
|---|---|---|---|---|---|
| 2026-04-19 23:42 | 39.83096 | -104.67416 | 5389 ft | 0 kts | 0° |
| 2026-04-19 23:48 | 39.83082 | -104.67417 | 5389 ft | 2 kts | 7° |
| 2026-04-19 23:48 | 39.83066 | -104.67419 | 5393 ft | 2 kts | 12° |
| 2026-04-19 23:49 | 39.83050 | -104.67425 | 5393 ft | 2 kts | 23° |
| 2026-04-19 23:49 | 39.83035 | -104.67435 | 5393 ft | 2 kts | 38° |
| 2026-04-19 23:49 | 39.83023 | -104.67449 | 5391 ft | 2 kts | 57° |
| 2026-04-19 23:49 | 39.83016 | -104.67468 | 5391 ft | 2 kts | 75° |
| 2026-04-19 23:50 | 39.83013 | -104.67489 | 5389 ft | 2 kts | 87° |
| 2026-04-19 23:50 | 39.83012 | -104.67499 | 5387 ft | 0 kts | 90° |
| 2026-04-19 23:50 | 39.83012 | -104.67500 | 5387 ft | 0 kts | 90° |
| 2026-04-19 23:52 | 39.83012 | -104.67495 | 5388 ft | 3 kts | 90° |
| 2026-04-19 23:52 | 39.83012 | -104.67445 | 5386 ft | 8 kts | 90° |
| 2026-04-19 23:52 | 39.83012 | -104.67376 | 5390 ft | 7 kts | 90° |
| 2026-04-19 23:52 | 39.83007 | -104.67313 | 5393 ft | 8 kts | 102° |
| 2026-04-19 23:53 | 39.82983 | -104.67237 | 5394 ft | 10 kts | 118° |
| 2026-04-19 23:53 | 39.82953 | -104.67167 | 5392 ft | 8 kts | 118° |
| 2026-04-19 23:53 | 39.82934 | -104.67107 | 5396 ft | 2 kts | 96° |
| 2026-04-19 23:53 | 39.82935 | -104.67078 | 5400 ft | 5 kts | 88° |
| 2026-04-19 23:54 | 39.82937 | -104.66992 | 5405 ft | 12 kts | 90° |
| 2026-04-19 23:54 | 39.82936 | -104.66910 | 5415 ft | 6 kts | 91° |
| 2026-04-19 23:54 | 39.82936 | -104.66860 | 5411 ft | 7 kts | 90° |
| 2026-04-19 23:54 | 39.82935 | -104.66728 | 5423 ft | 19 kts | 90° |
| 2026-04-19 23:55 | 39.82934 | -104.66587 | 5430 ft | 12 kts | 90° |
| 2026-04-19 23:55 | 39.82934 | -104.66478 | 5434 ft | 10 kts | 90° |
| 2026-04-19 23:55 | 39.82933 | -104.66409 | 5439 ft | 8 kts | 90° |
| 2026-04-19 23:55 | 39.82932 | -104.66326 | 5444 ft | 8 kts | 90° |
| 2026-04-19 23:56 | 39.82932 | -104.66231 | 5445 ft | 14 kts | 90° |
| 2026-04-19 23:56 | 39.82932 | -104.66104 | 5447 ft | 12 kts | 83° |
| 2026-04-19 23:56 | 39.82971 | -104.66052 | 5447 ft | 7 kts | 11° |
| 2026-04-19 23:56 | 39.82992 | -104.66052 | 5447 ft | 0 kts | 359° |
| 2026-04-19 23:57 | 39.83183 | -104.66051 | 5441 ft | 56 kts | 0° |
| 2026-04-19 23:57 | 39.83801 | -104.66043 | 5435 ft | 123 kts | 0° |
| 2026-04-19 23:57 | 39.84866 | -104.66033 | 5404 ft | 180 kts | 0° |
| 2026-04-19 23:57 | 39.86174 | -104.66019 | 5723 ft | 192 kts | 1° |
| 2026-04-19 23:58 | 39.87521 | -104.66002 | 6075 ft | 197 kts | 1° |
| 2026-04-19 23:58 | 39.88897 | -104.66014 | 6547 ft | 199 kts | 2° |
| 2026-04-19 23:58 | 39.90277 | -104.66085 | 7084 ft | 199 kts | 360° |
| 2026-04-19 23:58 | 39.91593 | -104.66661 | 7518 ft | 205 kts | 321° |
| 2026-04-19 23:59 | 39.92399 | -104.68174 | 7972 ft | 204 kts | 284° |
| 2026-04-19 23:59 | 39.92385 | -104.69981 | 8425 ft | 202 kts | 249° |
| 2026-04-19 23:59 | 39.91609 | -104.71533 | 8686 ft | 211 kts | 225° |
| 2026-04-19 23:59 | 39.90530 | -104.72932 | 8838 ft | 228 kts | 223° |
| 2026-04-20 00:00 | 39.89347 | -104.74440 | 8978 ft | 246 kts | 224° |
| 2026-04-20 00:00 | 39.88105 | -104.76059 | 9107 ft | 259 kts | 224° |
| 2026-04-20 00:00 | 39.86811 | -104.77779 | 9235 ft | 275 kts | 225° |
| 2026-04-20 00:00 | 39.85434 | -104.79638 | 9521 ft | 291 kts | 226° |
| 2026-04-20 00:01 | 39.84027 | -104.81558 | 10085 ft | 292 kts | 226° |
| 2026-04-20 00:01 | 39.83079 | -104.82857 | 10289 ft | 307 kts | 227° |
| 2026-04-20 00:01 | 39.79923 | -104.87216 | 10542 ft | 353 kts | 227° |
| 2026-04-20 00:02 | 39.78260 | -104.89619 | 11115 ft | 359 kts | 234° |
| 2026-04-20 00:02 | 39.77067 | -104.92442 | 11897 ft | 357 kts | 249° |
| 2026-04-20 00:02 | 39.76248 | -104.95528 | 12510 ft | 364 kts | 254° |
| 2026-04-20 00:02 | 39.75568 | -104.98708 | 13266 ft | 367 kts | 256° |
| 2026-04-20 00:03 | 39.74873 | -105.01911 | 14058 ft | 369 kts | 253° |
| 2026-04-20 00:03 | 39.74008 | -105.05056 | 14788 ft | 371 kts | 250° |
| 2026-04-20 00:03 | 39.73042 | -105.08179 | 15510 ft | 372 kts | 249° |
| 2026-04-20 00:03 | 39.72038 | -105.11288 | 16222 ft | 374 kts | 249° |
| 2026-04-20 00:04 | 39.71018 | -105.14404 | 16920 ft | 376 kts | 249° |
| 2026-04-20 00:04 | 39.69991 | -105.17530 | 17639 ft | 377 kts | 249° |
| 2026-04-20 00:04 | 39.68958 | -105.20676 | 18376 ft | 379 kts | 249° |
| 2026-04-20 00:04 | 39.67921 | -105.23838 | 18922 ft | 383 kts | 249° |
| 2026-04-20 00:05 | 39.66873 | -105.27035 | 19450 ft | 386 kts | 249° |
| 2026-04-20 00:05 | 39.65826 | -105.30211 | 19886 ft | 392 kts | 249° |
| 2026-04-20 00:05 | 39.64741 | -105.33498 | 20329 ft | 398 kts | 249° |
| 2026-04-20 00:05 | 39.63648 | -105.36806 | 20870 ft | 401 kts | 249° |
| 2026-04-20 00:06 | 39.62545 | -105.40144 | 21424 ft | 404 kts | 250° |
| 2026-04-20 00:06 | 39.61435 | -105.43507 | 21948 ft | 408 kts | 250° |
| 2026-04-20 00:06 | 39.60315 | -105.46898 | 22488 ft | 411 kts | 250° |
| 2026-04-20 00:06 | 39.59184 | -105.50317 | 23005 ft | 414 kts | 250° |
| 2026-04-20 00:07 | 39.58043 | -105.53760 | 23540 ft | 417 kts | 250° |
| 2026-04-20 00:07 | 39.56890 | -105.57233 | 23998 ft | 420 kts | 250° |
| 2026-04-20 00:07 | 39.55733 | -105.60720 | 24426 ft | 423 kts | 251° |
| 2026-04-20 00:07 | 39.54619 | -105.64254 | 24904 ft | 424 kts | 252° |
| 2026-04-20 00:08 | 39.53588 | -105.67832 | 25346 ft | 426 kts | 253° |
| 2026-04-20 00:08 | 39.52587 | -105.71459 | 25750 ft | 428 kts | 254° |
| 2026-04-20 00:08 | 39.51596 | -105.75095 | 26193 ft | 430 kts | 254° |
| 2026-04-20 00:08 | 39.50597 | -105.78759 | 26638 ft | 431 kts | 254° |
| 2026-04-20 00:09 | 39.49591 | -105.82434 | 27053 ft | 434 kts | 253° |
| 2026-04-20 00:09 | 39.48575 | -105.86128 | 27451 ft | 436 kts | 253° |
| 2026-04-20 00:09 | 39.47552 | -105.89831 | 27869 ft | 438 kts | 253° |
| 2026-04-20 00:09 | 39.46523 | -105.93547 | 28283 ft | 441 kts | 253° |
| 2026-04-20 00:10 | 39.45481 | -105.97297 | 28697 ft | 443 kts | 253° |
| 2026-04-20 00:10 | 39.44437 | -106.01050 | 29063 ft | 445 kts | 253° |
| 2026-04-20 00:10 | 39.43385 | -106.04830 | 29410 ft | 448 kts | 253° |
| 2026-04-20 00:10 | 39.42324 | -106.08633 | 29772 ft | 451 kts | 253° |
| 2026-04-20 00:11 | 39.41271 | -106.12399 | 30229 ft | 451 kts | 253° |
| 2026-04-20 00:11 | 39.40191 | -106.16253 | 30731 ft | 449 kts | 253° |
| 2026-04-20 00:11 | 39.39136 | -106.19992 | 31202 ft | 447 kts | 253° |
| 2026-04-20 00:11 | 39.38067 | -106.23765 | 31699 ft | 445 kts | 253° |
| 2026-04-20 00:12 | 39.37004 | -106.27515 | 32314 ft | 444 kts | 253° |
| 2026-04-20 00:12 | 39.35947 | -106.31254 | 32773 ft | 442 kts | 254° |
| 2026-04-20 00:12 | 39.34891 | -106.34988 | 33170 ft | 441 kts | 253° |
| 2026-04-20 00:12 | 39.33843 | -106.38700 | 33565 ft | 440 kts | 253° |
| 2026-04-20 00:13 | 39.32795 | -106.42405 | 33957 ft | 438 kts | 253° |
| 2026-04-20 00:13 | 39.31749 | -106.46100 | 34235 ft | 440 kts | 254° |
| 2026-04-20 00:13 | 39.30693 | -106.49831 | 34276 ft | 443 kts | 254° |
| 2026-04-20 00:14 | 39.28574 | -106.57291 | 34256 ft | 441 kts | 253° |
| 2026-04-20 00:14 | 39.26455 | -106.64707 | 34181 ft | 441 kts | 252° |
| 2026-04-20 00:15 | 39.23418 | -106.71652 | 34219 ft | 450 kts | 238° |
| 2026-04-20 00:15 | 39.19538 | -106.77957 | 34239 ft | 452 kts | 235° |
| 2026-04-20 00:16 | 39.15575 | -106.84252 | 34242 ft | 452 kts | 236° |
| 2026-04-20 00:16 | 39.11673 | -106.90602 | 34090 ft | 451 kts | 236° |
| 2026-04-20 00:17 | 39.07806 | -106.96960 | 34076 ft | 451 kts | 236° |
| 2026-04-20 00:17 | 39.03940 | -107.03318 | 34074 ft | 451 kts | 236° |
| 2026-04-20 00:18 | 39.00073 | -107.09664 | 34087 ft | 450 kts | 236° |
| 2026-04-20 00:18 | 38.96208 | -107.15991 | 34086 ft | 449 kts | 235° |
| 2026-04-20 00:19 | 38.92364 | -107.22269 | 34082 ft | 448 kts | 235° |
| 2026-04-20 00:19 | 38.88506 | -107.28559 | 34094 ft | 449 kts | 235° |
| 2026-04-20 00:20 | 38.84636 | -107.34855 | 34083 ft | 449 kts | 235° |
| 2026-04-20 00:20 | 38.80767 | -107.41137 | 34078 ft | 449 kts | 235° |
| 2026-04-20 00:21 | 38.76895 | -107.47413 | 34065 ft | 448 kts | 235° |
| 2026-04-20 00:21 | 38.73018 | -107.53669 | 34070 ft | 448 kts | 234° |
| 2026-04-20 00:22 | 38.69120 | -107.59911 | 34076 ft | 448 kts | 234° |
| 2026-04-20 00:22 | 38.65235 | -107.66146 | 34071 ft | 448 kts | 234° |
| 2026-04-20 00:23 | 38.61354 | -107.72383 | 34073 ft | 448 kts | 234° |
| 2026-04-20 00:23 | 38.57477 | -107.78606 | 34053 ft | 447 kts | 234° |
| 2026-04-20 00:23 | 38.55539 | -107.81712 | 34180 ft | 447 kts | 234° |
| 2026-04-20 00:24 | 38.53604 | -107.84811 | 34188 ft | 446 kts | 234° |
| 2026-04-20 00:24 | 38.49729 | -107.91006 | 34186 ft | 446 kts | 234° |
| 2026-04-20 00:25 | 38.45852 | -107.97193 | 34185 ft | 446 kts | 234° |
| 2026-04-20 00:25 | 38.41994 | -108.03337 | 34156 ft | 446 kts | 234° |
| 2026-04-20 00:26 | 38.38107 | -108.09516 | 34134 ft | 446 kts | 233° |
| 2026-04-20 00:26 | 38.34221 | -108.15681 | 34117 ft | 445 kts | 233° |
| 2026-04-20 00:27 | 38.30340 | -108.21826 | 34106 ft | 445 kts | 233° |
| 2026-04-20 00:27 | 38.26443 | -108.27986 | 34095 ft | 445 kts | 233° |
| 2026-04-20 00:28 | 38.22553 | -108.34122 | 34097 ft | 445 kts | 233° |
| 2026-04-20 00:28 | 38.18641 | -108.40237 | 34109 ft | 446 kts | 233° |
| 2026-04-20 00:29 | 38.14758 | -108.46306 | 34096 ft | 445 kts | 233° |
| 2026-04-20 00:29 | 38.10863 | -108.52405 | 34094 ft | 444 kts | 233° |
| 2026-04-20 00:30 | 38.06972 | -108.58496 | 34093 ft | 444 kts | 233° |
| 2026-04-20 00:30 | 38.03083 | -108.64575 | 34098 ft | 443 kts | 232° |
| 2026-04-20 00:31 | 37.99197 | -108.70636 | 34101 ft | 443 kts | 232° |
| 2026-04-20 00:31 | 37.95307 | -108.76692 | 34105 ft | 443 kts | 232° |
| 2026-04-20 00:32 | 37.91417 | -108.82737 | 34102 ft | 443 kts | 232° |
| 2026-04-20 00:32 | 37.87529 | -108.88767 | 34106 ft | 442 kts | 232° |
| 2026-04-20 00:33 | 37.83634 | -108.94797 | 34104 ft | 442 kts | 232° |
| 2026-04-20 00:33 | 37.79741 | -109.00814 | 34109 ft | 442 kts | 232° |
| 2026-04-20 00:34 | 37.75845 | -109.06824 | 34100 ft | 442 kts | 232° |
| 2026-04-20 00:34 | 37.71961 | -109.12803 | 34103 ft | 443 kts | 231° |
| 2026-04-20 00:35 | 37.68036 | -109.18818 | 34124 ft | 444 kts | 231° |
| 2026-04-20 00:35 | 37.64091 | -109.24824 | 34142 ft | 444 kts | 231° |
| 2026-04-20 00:36 | 37.60155 | -109.30832 | 34156 ft | 444 kts | 231° |
| 2026-04-20 00:36 | 37.56214 | -109.36851 | 34170 ft | 444 kts | 231° |
| 2026-04-20 00:37 | 37.52276 | -109.42860 | 34177 ft | 444 kts | 231° |
| 2026-04-20 00:37 | 37.48335 | -109.48862 | 34177 ft | 445 kts | 230° |
| 2026-04-20 00:38 | 37.44375 | -109.54881 | 34143 ft | 447 kts | 230° |
| 2026-04-20 00:38 | 37.40404 | -109.60906 | 34120 ft | 447 kts | 230° |
| 2026-04-20 00:39 | 37.36458 | -109.66882 | 34090 ft | 447 kts | 230° |
| 2026-04-20 00:39 | 37.32485 | -109.72887 | 34039 ft | 447 kts | 230° |
| 2026-04-20 00:40 | 37.28507 | -109.78888 | 34045 ft | 447 kts | 230° |
| 2026-04-20 00:40 | 37.24528 | -109.84881 | 34041 ft | 446 kts | 230° |
| 2026-04-20 00:41 | 37.20548 | -109.90865 | 34032 ft | 446 kts | 230° |
| 2026-04-20 00:41 | 37.16568 | -109.96836 | 34030 ft | 446 kts | 230° |
| 2026-04-20 00:42 | 37.12563 | -110.02793 | 34029 ft | 447 kts | 230° |
| 2026-04-20 00:42 | 37.08559 | -110.08750 | 34022 ft | 447 kts | 230° |
| 2026-04-20 00:43 | 37.04561 | -110.14710 | 34040 ft | 447 kts | 230° |
| 2026-04-20 00:43 | 37.00561 | -110.20668 | 34025 ft | 447 kts | 230° |
| 2026-04-20 00:44 | 36.96559 | -110.26621 | 34035 ft | 447 kts | 229° |
| 2026-04-20 00:44 | 36.92582 | -110.32525 | 34035 ft | 447 kts | 229° |
| 2026-04-20 00:45 | 36.88574 | -110.38464 | 34027 ft | 447 kts | 229° |
| 2026-04-20 00:45 | 36.84564 | -110.44395 | 34024 ft | 447 kts | 229° |
| 2026-04-20 00:46 | 36.80531 | -110.50351 | 34031 ft | 450 kts | 229° |
| 2026-04-20 00:46 | 36.77166 | -110.55310 | 34021 ft | 450 kts | 229° |
| 2026-04-20 00:47 | 36.73118 | -110.61267 | 34022 ft | 450 kts | 229° |
| 2026-04-20 00:47 | 36.69067 | -110.67218 | 34022 ft | 450 kts | 229° |
| 2026-04-20 00:48 | 36.65012 | -110.73164 | 34026 ft | 450 kts | 229° |
| 2026-04-20 00:48 | 36.60951 | -110.79092 | 34005 ft | 450 kts | 228° |
| 2026-04-20 00:49 | 36.56880 | -110.84999 | 34006 ft | 449 kts | 228° |
| 2026-04-20 00:49 | 36.52827 | -110.90893 | 33998 ft | 447 kts | 228° |
| 2026-04-20 00:50 | 36.48803 | -110.96750 | 33989 ft | 448 kts | 228° |
| 2026-04-20 00:50 | 36.44747 | -111.02645 | 34000 ft | 448 kts | 228° |
| 2026-04-20 00:51 | 36.40696 | -111.08523 | 34005 ft | 448 kts | 228° |
| 2026-04-20 00:51 | 36.36669 | -111.14356 | 34003 ft | 448 kts | 228° |
| 2026-04-20 00:52 | 36.32618 | -111.20212 | 33989 ft | 446 kts | 228° |
| 2026-04-20 00:52 | 36.28573 | -111.26051 | 33990 ft | 445 kts | 228° |
| 2026-04-20 00:53 | 36.24528 | -111.31878 | 33984 ft | 446 kts | 228° |
| 2026-04-20 00:53 | 36.20484 | -111.37694 | 33982 ft | 445 kts | 228° |
| 2026-04-20 00:54 | 36.16469 | -111.43459 | 33983 ft | 444 kts | 228° |
| 2026-04-20 00:54 | 36.12433 | -111.49243 | 33990 ft | 444 kts | 228° |
| 2026-04-20 00:55 | 36.08391 | -111.55024 | 34002 ft | 444 kts | 228° |
| 2026-04-20 00:55 | 36.04332 | -111.60783 | 33999 ft | 444 kts | 228° |
| 2026-04-20 00:56 | 36.00278 | -111.66536 | 34008 ft | 444 kts | 228° |
| 2026-04-20 00:56 | 35.96222 | -111.72305 | 34006 ft | 444 kts | 228° |
| 2026-04-20 00:57 | 35.92171 | -111.78060 | 34037 ft | 444 kts | 228° |
| 2026-04-20 00:57 | 35.88127 | -111.83798 | 34081 ft | 441 kts | 228° |
| 2026-04-20 00:58 | 35.84141 | -111.89445 | 34016 ft | 439 kts | 228° |
| 2026-04-20 00:58 | 35.80351 | -111.95324 | 34035 ft | 440 kts | 236° |
| 2026-04-20 00:59 | 35.77287 | -112.01874 | 34041 ft | 442 kts | 240° |
| 2026-04-20 00:59 | 35.74376 | -112.08548 | 34038 ft | 442 kts | 239° |
| 2026-04-20 01:00 | 35.71381 | -112.15155 | 34032 ft | 441 kts | 238° |
| 2026-04-20 01:00 | 35.68329 | -112.21675 | 34019 ft | 438 kts | 238° |
| 2026-04-20 01:01 | 35.65276 | -112.28157 | 34017 ft | 438 kts | 238° |
| 2026-04-20 01:01 | 35.62240 | -112.34601 | 34013 ft | 438 kts | 238° |
| 2026-04-20 01:02 | 35.59192 | -112.41088 | 34027 ft | 438 kts | 238° |
| 2026-04-20 01:02 | 35.56154 | -112.47598 | 33999 ft | 438 kts | 238° |
| 2026-04-20 01:03 | 35.53130 | -112.54086 | 33976 ft | 437 kts | 238° |
| 2026-04-20 01:03 | 35.50098 | -112.60578 | 33963 ft | 439 kts | 238° |
| 2026-04-20 01:04 | 35.47058 | -112.67075 | 33965 ft | 439 kts | 238° |
| 2026-04-20 01:04 | 35.44030 | -112.73533 | 33954 ft | 439 kts | 237° |
| 2026-04-20 01:05 | 35.40981 | -112.80023 | 33959 ft | 439 kts | 237° |
| 2026-04-20 01:05 | 35.37925 | -112.86516 | 33943 ft | 440 kts | 237° |
| 2026-04-20 01:06 | 35.34862 | -112.93012 | 33939 ft | 440 kts | 237° |
| 2026-04-20 01:06 | 35.31792 | -112.99509 | 33925 ft | 441 kts | 237° |
| 2026-04-20 01:07 | 35.28733 | -113.05970 | 33921 ft | 441 kts | 237° |
| 2026-04-20 01:07 | 35.25656 | -113.12457 | 33911 ft | 442 kts | 237° |
| 2026-04-20 01:08 | 35.22537 | -113.18990 | 33917 ft | 446 kts | 237° |
| 2026-04-20 01:08 | 35.19399 | -113.25538 | 33891 ft | 446 kts | 237° |
| 2026-04-20 01:09 | 35.16270 | -113.32083 | 33893 ft | 446 kts | 237° |
| 2026-04-20 01:09 | 35.13142 | -113.38626 | 33871 ft | 446 kts | 237° |
| 2026-04-20 01:10 | 35.09998 | -113.45193 | 33875 ft | 451 kts | 237° |
| 2026-04-20 01:10 | 35.05176 | -113.55236 | 33858 ft | 458 kts | 237° |
| 2026-04-20 01:11 | 35.01951 | -113.61943 | 33860 ft | 458 kts | 237° |
| 2026-04-20 01:11 | 34.98726 | -113.68634 | 33855 ft | 458 kts | 237° |
| 2026-04-20 01:12 | 34.95514 | -113.75287 | 33856 ft | 458 kts | 237° |
| 2026-04-20 01:12 | 34.92278 | -113.81973 | 33844 ft | 457 kts | 237° |
| 2026-04-20 01:13 | 34.89043 | -113.88645 | 33832 ft | 457 kts | 237° |
| 2026-04-20 01:13 | 34.85765 | -113.95287 | 33828 ft | 457 kts | 235° |
| 2026-04-20 01:14 | 34.82393 | -114.01845 | 33821 ft | 457 kts | 235° |
| 2026-04-20 01:14 | 34.79015 | -114.08389 | 33832 ft | 456 kts | 235° |
| 2026-04-20 01:15 | 34.75663 | -114.14902 | 33818 ft | 452 kts | 236° |
| 2026-04-20 01:15 | 34.72336 | -114.21363 | 33826 ft | 450 kts | 236° |
| 2026-04-20 01:16 | 34.69006 | -114.27820 | 33832 ft | 452 kts | 236° |
| 2026-04-20 01:16 | 34.65661 | -114.34294 | 33841 ft | 452 kts | 236° |
| 2026-04-20 01:17 | 34.61996 | -114.40408 | 33828 ft | 450 kts | 228° |
| 2026-04-20 01:17 | 34.57866 | -114.46126 | 33821 ft | 450 kts | 226° |
| 2026-04-20 01:18 | 34.53703 | -114.51789 | 33825 ft | 450 kts | 227° |
| 2026-04-20 01:18 | 34.49564 | -114.57487 | 33818 ft | 450 kts | 227° |
| 2026-04-20 01:19 | 34.45434 | -114.63204 | 33808 ft | 450 kts | 227° |
| 2026-04-20 01:19 | 34.41310 | -114.68911 | 33810 ft | 450 kts | 227° |
| 2026-04-20 01:20 | 34.37184 | -114.74608 | 33809 ft | 450 kts | 227° |
| 2026-04-20 01:20 | 34.33044 | -114.80288 | 33820 ft | 450 kts | 227° |
| 2026-04-20 01:21 | 34.28890 | -114.85955 | 33819 ft | 450 kts | 227° |
| 2026-04-20 01:21 | 34.24737 | -114.91619 | 33818 ft | 450 kts | 227° |
| 2026-04-20 01:22 | 34.20608 | -114.97248 | 33816 ft | 450 kts | 227° |
| 2026-04-20 01:22 | 34.16450 | -115.02911 | 33826 ft | 450 kts | 226° |
| 2026-04-20 01:23 | 34.12305 | -115.08547 | 33824 ft | 449 kts | 226° |
| 2026-04-20 01:23 | 34.08155 | -115.14178 | 33825 ft | 449 kts | 226° |
| 2026-04-20 01:24 | 34.03998 | -115.19810 | 33817 ft | 449 kts | 226° |
| 2026-04-20 01:24 | 33.99847 | -115.25425 | 33822 ft | 448 kts | 226° |
| 2026-04-20 01:25 | 33.95697 | -115.31028 | 33835 ft | 448 kts | 226° |
| 2026-04-20 01:25 | 33.91567 | -115.36613 | 33839 ft | 451 kts | 227° |
| 2026-04-20 01:26 | 33.87381 | -115.42276 | 33844 ft | 453 kts | 227° |
| 2026-04-20 01:26 | 33.83197 | -115.47932 | 33842 ft | 452 kts | 227° |
| 2026-04-20 01:27 | 33.79027 | -115.53560 | 33848 ft | 441 kts | 227° |
| 2026-04-20 01:27 | 33.77026 | -115.56258 | 33458 ft | 430 kts | 227° |
| 2026-04-20 01:27 | 33.75040 | -115.58932 | 32864 ft | 426 kts | 227° |
| 2026-04-20 01:28 | 33.73072 | -115.61581 | 32486 ft | 426 kts | 227° |
| 2026-04-20 01:28 | 33.71088 | -115.64242 | 32112 ft | 428 kts | 227° |
| 2026-04-20 01:28 | 33.69091 | -115.66900 | 31903 ft | 429 kts | 227° |
| 2026-04-20 01:28 | 33.67082 | -115.69564 | 31862 ft | 431 kts | 227° |
| 2026-04-20 01:29 | 33.63047 | -115.74912 | 31847 ft | 432 kts | 227° |
| 2026-04-20 01:29 | 33.59352 | -115.80610 | 31848 ft | 433 kts | 234° |
| 2026-04-20 01:30 | 33.55953 | -115.86583 | 31851 ft | 433 kts | 235° |
| 2026-04-20 01:30 | 33.52569 | -115.92562 | 31861 ft | 433 kts | 234° |
| 2026-04-20 01:31 | 33.49176 | -115.98483 | 30832 ft | 425 kts | 234° |
| 2026-04-20 01:31 | 33.47501 | -116.01390 | 28823 ft | 431 kts | 234° |
| 2026-04-20 01:31 | 33.45786 | -116.04357 | 26628 ft | 435 kts | 234° |
| 2026-04-20 01:32 | 33.44060 | -116.07342 | 24812 ft | 435 kts | 235° |
| 2026-04-20 01:32 | 33.42358 | -116.10286 | 23310 ft | 427 kts | 236° |
| 2026-04-20 01:32 | 33.40677 | -116.13192 | 22425 ft | 426 kts | 235° |
| 2026-04-20 01:32 | 33.38997 | -116.16097 | 21600 ft | 421 kts | 235° |
| 2026-04-20 01:33 | 33.37338 | -116.18964 | 20918 ft | 417 kts | 235° |
| 2026-04-20 01:33 | 33.35695 | -116.21800 | 20317 ft | 413 kts | 235° |
| 2026-04-20 01:33 | 33.33915 | -116.24458 | 19920 ft | 408 kts | 223° |
| 2026-04-20 01:33 | 33.31658 | -116.26521 | 19354 ft | 410 kts | 211° |
| 2026-04-20 01:34 | 33.29159 | -116.28098 | 18766 ft | 402 kts | 205° |
| 2026-04-20 01:34 | 33.26630 | -116.29482 | 18211 ft | 398 kts | 204° |
| 2026-04-20 01:34 | 33.24114 | -116.30832 | 17618 ft | 394 kts | 204° |
| 2026-04-20 01:34 | 33.21633 | -116.32195 | 17072 ft | 391 kts | 204° |
| 2026-04-20 01:35 | 33.20009 | -116.33108 | 16713 ft | 389 kts | 204° |
| 2026-04-20 01:35 | 33.17575 | -116.34504 | 16194 ft | 387 kts | 205° |
| 2026-04-20 01:35 | 33.15160 | -116.35909 | 15686 ft | 385 kts | 205° |
| 2026-04-20 01:35 | 33.12764 | -116.37315 | 15170 ft | 383 kts | 205° |
| 2026-04-20 01:36 | 33.10384 | -116.38716 | 14719 ft | 380 kts | 205° |
| 2026-04-20 01:36 | 33.08030 | -116.40102 | 14400 ft | 374 kts | 205° |
| 2026-04-20 01:36 | 33.05765 | -116.41439 | 14236 ft | 352 kts | 204° |
| 2026-04-20 01:36 | 33.03639 | -116.42694 | 14131 ft | 333 kts | 205° |
| 2026-04-20 01:37 | 33.01566 | -116.43916 | 13946 ft | 330 kts | 205° |
| 2026-04-20 01:37 | 32.99614 | -116.45346 | 13559 ft | 331 kts | 214° |
| 2026-04-20 01:37 | 32.97800 | -116.47041 | 13031 ft | 329 kts | 217° |
| 2026-04-20 01:37 | 32.96063 | -116.48797 | 12517 ft | 325 kts | 219° |
| 2026-04-20 01:38 | 32.94364 | -116.50547 | 12075 ft | 321 kts | 219° |
| 2026-04-20 01:38 | 32.92681 | -116.52278 | 11605 ft | 319 kts | 219° |
| 2026-04-20 01:38 | 32.91000 | -116.53998 | 11138 ft | 318 kts | 219° |
| 2026-04-20 01:38 | 32.89334 | -116.55696 | 10736 ft | 311 kts | 218° |
| 2026-04-20 01:39 | 32.87758 | -116.57302 | 10552 ft | 285 kts | 218° |
| 2026-04-20 01:39 | 32.86274 | -116.58810 | 10413 ft | 284 kts | 218° |
| 2026-04-20 01:39 | 32.84774 | -116.60329 | 10078 ft | 282 kts | 218° |
| 2026-04-20 01:39 | 32.83285 | -116.61835 | 9670 ft | 281 kts | 218° |
| 2026-04-20 01:40 | 32.81806 | -116.63329 | 9232 ft | 276 kts | 218° |
| 2026-04-20 01:40 | 32.80343 | -116.64809 | 8855 ft | 275 kts | 218° |
| 2026-04-20 01:40 | 32.78891 | -116.66277 | 8448 ft | 273 kts | 218° |
| 2026-04-20 01:40 | 32.77534 | -116.67848 | 8118 ft | 272 kts | 230° |
| 2026-04-20 01:41 | 32.76475 | -116.69721 | 7700 ft | 275 kts | 236° |
| 2026-04-20 01:41 | 32.75530 | -116.71660 | 7271 ft | 269 kts | 238° |
| 2026-04-20 01:41 | 32.74615 | -116.73600 | 6916 ft | 269 kts | 238° |
| 2026-04-20 01:41 | 32.73706 | -116.75534 | 6566 ft | 267 kts | 238° |
| 2026-04-20 01:42 | 32.72802 | -116.77459 | 6209 ft | 265 kts | 238° |
| 2026-04-20 01:42 | 32.71902 | -116.79368 | 6028 ft | 264 kts | 238° |
| 2026-04-20 01:42 | 32.71018 | -116.81287 | 5997 ft | 265 kts | 242° |
| 2026-04-20 01:42 | 32.70288 | -116.83290 | 5936 ft | 259 kts | 246° |
| 2026-04-20 01:43 | 32.69669 | -116.85227 | 5606 ft | 243 kts | 247° |
| 2026-04-20 01:43 | 32.69110 | -116.87033 | 5295 ft | 223 kts | 247° |
| 2026-04-20 01:43 | 32.68615 | -116.88694 | 5019 ft | 202 kts | 247° |
| 2026-04-20 01:43 | 32.68152 | -116.90263 | 4680 ft | 200 kts | 248° |
| 2026-04-20 01:44 | 32.67697 | -116.91805 | 4300 ft | 196 kts | 248° |
| 2026-04-20 01:44 | 32.67409 | -116.93380 | 4005 ft | 196 kts | 270° |
| 2026-04-20 01:44 | 32.67638 | -116.95000 | 3756 ft | 202 kts | 282° |
| 2026-04-20 01:44 | 32.67987 | -116.96587 | 3592 ft | 198 kts | 282° |
| 2026-04-20 01:45 | 32.68350 | -116.98180 | 3587 ft | 202 kts | 282° |
| 2026-04-20 01:45 | 32.68725 | -116.99796 | 3250 ft | 200 kts | 284° |
| 2026-04-20 01:45 | 32.69088 | -117.01332 | 2855 ft | 186 kts | 284° |
| 2026-04-20 01:45 | 32.69423 | -117.02743 | 2686 ft | 175 kts | 284° |
| 2026-04-20 01:46 | 32.69753 | -117.04123 | 2687 ft | 174 kts | 284° |
| 2026-04-20 01:46 | 32.70086 | -117.05512 | 2507 ft | 176 kts | 284° |
| 2026-04-20 01:46 | 32.70415 | -117.06880 | 2144 ft | 170 kts | 284° |
| 2026-04-20 01:46 | 32.70732 | -117.08193 | 1998 ft | 166 kts | 284° |
| 2026-04-20 01:47 | 32.71056 | -117.09537 | 1822 ft | 166 kts | 284° |
| 2026-04-20 01:47 | 32.71370 | -117.10837 | 1556 ft | 163 kts | 284° |
| 2026-04-20 01:47 | 32.71678 | -117.12114 | 1303 ft | 164 kts | 284° |
| 2026-04-20 01:47 | 32.71992 | -117.13406 | 1052 ft | 161 kts | 284° |
| 2026-04-20 01:48 | 32.72299 | -117.14668 | 803 ft | 158 kts | 283° |
| 2026-04-20 01:48 | 32.72604 | -117.15936 | 537 ft | 161 kts | 284° |
| 2026-04-20 01:48 | 32.72931 | -117.17220 | 263 ft | 159 kts | 285° |
| 2026-04-20 01:48 | 32.73233 | -117.18442 | 40 ft | 146 kts | 284° |
| 2026-04-20 01:49 | 32.73433 | -117.19279 | 28 ft | 59 kts | 286° |
| 2026-04-20 01:49 | 32.73524 | -117.19656 | 33 ft | 35 kts | 286° |
| 2026-04-20 01:49 | 32.73514 | -117.19823 | 33 ft | 13 kts | 239° |
| 2026-04-20 01:49 | 32.73481 | -117.19842 | 32 ft | 2 kts | 173° |
| 2026-04-20 01:50 | 32.73461 | -117.19815 | 31 ft | 6 kts | 114° |
| 2026-04-20 01:50 | 32.73457 | -117.19799 | 31 ft | 0 kts | 107° |
| 2026-04-20 01:52 | 32.73456 | -117.19798 | 31 ft | 0 kts | 107° |
| 2026-04-20 01:52 | 32.73444 | -117.19749 | 31 ft | 13 kts | 107° |
| 2026-04-20 01:52 | 32.73415 | -117.19631 | 30 ft | 15 kts | 106° |
| 2026-04-20 01:52 | 32.73386 | -117.19512 | 31 ft | 16 kts | 106° |
| 2026-04-20 01:53 | 32.73342 | -117.19333 | 28 ft | 26 kts | 106° |
| 2026-04-20 01:53 | 32.73336 | -117.19166 | 26 ft | 16 kts | 45° |
| 2026-04-20 01:53 | 32.73421 | -117.19104 | 27 ft | 14 kts | 29° |
| 2026-04-20 01:53 | 32.73478 | -117.19051 | 29 ft | 10 kts | 68° |
| 2026-04-20 01:54 | 32.73458 | -117.18915 | 30 ft | 23 kts | 106° |
| 2026-04-20 01:54 | 32.73403 | -117.18686 | 29 ft | 31 kts | 105° |
| 2026-04-20 01:54 | 32.73352 | -117.18476 | 28 ft | 14 kts | 107° |
| 2026-04-20 01:54 | 32.73360 | -117.18420 | 28 ft | 7 kts | 52° |
| 2026-04-20 01:55 | 32.73409 | -117.18376 | 28 ft | 8 kts | 60° |
| 2026-04-20 01:55 | 32.73406 | -117.18352 | 27 ft | 4 kts | 107° |
| 2026-04-20 01:55 | 32.73398 | -117.18317 | 27 ft | 5 kts | 105° |
| 2026-04-20 01:55 | 32.73397 | -117.18312 | 27 ft | 0 kts | 105° |